sensor_id;sensor_type;location;lat;lon;timestamp;pressure;altitude;pressure_sealevel;temperature;humidity
36138;BME280;22194;50.046;21.954;2022-12-11T00:01:41;97611.05;;;-0.01;78.27
36138;BME280;22194;50.046;21.954;2022-12-11T00:04:09;97602.36;;;-0.01;78.38
36138;BME280;22194;50.046;21.954;2022-12-11T00:06:37;97599.40;;;-0.01;78.46
36138;BME280;22194;50.046;21.954;2022-12-11T00:09:05;97595.28;;;-0.02;78.19
36138;BME280;22194;50.046;21.954;2022-12-11T00:11:34;97597.77;;;-0.02;78.29
36138;BME280;22194;50.046;21.954;2022-12-11T00:14:03;97603.76;;;-0.04;78.33
36138;BME280;22194;50.046;21.954;2022-12-11T00:16:33;97599.63;;;-0.05;78.31
36138;BME280;22194;50.046;21.954;2022-12-11T00:19:01;97599.20;;;-0.07;78.39
36138;BME280;22194;50.046;21.954;2022-12-11T00:21:31;97600.16;;;-0.09;78.31
36138;BME280;22194;50.046;21.954;2022-12-11T00:23:59;97596.20;;;-0.13;78.26
36138;BME280;22194;50.046;21.954;2022-12-11T00:26:27;97596.50;;;-0.15;78.30
36138;BME280;22194;50.046;21.954;2022-12-11T00:28:58;97591.03;;;-0.17;78.25
36138;BME280;22194;50.046;21.954;2022-12-11T00:31:26;97585.91;;;-0.20;78.29
36138;BME280;22194;50.046;21.954;2022-12-11T00:33:55;97578.35;;;-0.18;78.30
36138;BME280;22194;50.046;21.954;2022-12-11T00:36:26;97573.86;;;-0.19;78.34
36138;BME280;22194;50.046;21.954;2022-12-11T00:38:56;97573.70;;;-0.19;78.35
36138;BME280;22194;50.046;21.954;2022-12-11T00:41:24;97569.39;;;-0.20;78.43
36138;BME280;22194;50.046;21.954;2022-12-11T00:43:52;97569.39;;;-0.20;78.36
36138;BME280;22194;50.046;21.954;2022-12-11T00:46:20;97571.30;;;-0.20;78.47
36138;BME280;22194;50.046;21.954;2022-12-11T00:48:50;97573.18;;;-0.19;78.28
36138;BME280;22194;50.046;21.954;2022-12-11T00:51:18;97562.30;;;-0.18;78.43
36138;BME280;22194;50.046;21.954;2022-12-11T00:53:47;97561.54;;;-0.17;78.52
36138;BME280;22194;50.046;21.954;2022-12-11T00:56:19;97561.17;;;-0.16;78.40
36138;BME280;22194;50.046;21.954;2022-12-11T00:58:49;97561.48;;;-0.15;78.38
36138;BME280;22194;50.046;21.954;2022-12-11T01:01:20;97560.17;;;-0.13;78.41
36138;BME280;22194;50.046;21.954;2022-12-11T01:03:51;97558.77;;;-0.13;78.38
36138;BME280;22194;50.046;21.954;2022-12-11T01:06:25;97558.65;;;-0.14;78.37
36138;BME280;22194;50.046;21.954;2022-12-11T01:08:53;97553.70;;;-0.17;78.36
36138;BME280;22194;50.046;21.954;2022-12-11T01:11:44;97552.80;;;-0.19;78.35
36138;BME280;22194;50.046;21.954;2022-12-11T01:14:14;97557.44;;;-0.21;78.31
36138;BME280;22194;50.046;21.954;2022-12-11T01:16:42;97560.31;;;-0.23;78.42
36138;BME280;22194;50.046;21.954;2022-12-11T01:19:11;97550.52;;;-0.25;78.29
36138;BME280;22194;50.046;21.954;2022-12-11T01:21:39;97550.86;;;-0.29;78.25
36138;BME280;22194;50.046;21.954;2022-12-11T01:24:10;97555.98;;;-0.30;78.35
36138;BME280;22194;50.046;21.954;2022-12-11T01:26:37;97556.25;;;-0.32;78.14
36138;BME280;22194;50.046;21.954;2022-12-11T01:29:06;97553.10;;;-0.35;78.31
36138;BME280;22194;50.046;21.954;2022-12-11T01:31:33;97545.82;;;-0.36;78.29
36138;BME280;22194;50.046;21.954;2022-12-11T01:34:02;97540.27;;;-0.36;78.32
36138;BME280;22194;50.046;21.954;2022-12-11T01:36:29;97534.36;;;-0.36;78.39
36138;BME280;22194;50.046;21.954;2022-12-11T01:39:01;97535.67;;;-0.38;78.37
36138;BME280;22194;50.046;21.954;2022-12-11T01:41:31;97522.16;;;-0.39;78.39
36138;BME280;22194;50.046;21.954;2022-12-11T01:44:00;97517.76;;;-0.39;78.38
36138;BME280;22194;50.046;21.954;2022-12-11T01:46:34;97517.59;;;-0.39;78.37
36138;BME280;22194;50.046;21.954;2022-12-11T01:49:06;97512.23;;;-0.40;78.42
36138;BME280;22194;50.046;21.954;2022-12-11T01:51:45;97502.05;;;-0.41;78.40
36138;BME280;22194;50.046;21.954;2022-12-11T01:54:20;97494.92;;;-0.41;78.44
36138;BME280;22194;50.046;21.954;2022-12-11T01:56:53;97491.21;;;-0.43;78.28
36138;BME280;22194;50.046;21.954;2022-12-11T01:59:26;97490.76;;;-0.45;78.32
36138;BME280;22194;50.046;21.954;2022-12-11T02:02:02;97477.10;;;-0.47;78.37
36138;BME280;22194;50.046;21.954;2022-12-11T02:04:36;97471.73;;;-0.51;78.38
36138;BME280;22194;50.046;21.954;2022-12-11T02:07:06;97467.04;;;-0.54;78.38
36138;BME280;22194;50.046;21.954;2022-12-11T02:09:38;97464.70;;;-0.56;78.36
36138;BME280;22194;50.046;21.954;2022-12-11T02:18:41;97455.80;;;-0.56;78.41
36138;BME280;22194;50.046;21.954;2022-12-11T02:21:02;97457.66;;;-0.58;78.28
36138;BME280;22194;50.046;21.954;2022-12-11T02:30:05;97454.89;;;-0.58;78.41
36138;BME280;22194;50.046;21.954;2022-12-11T02:32:52;97452.80;;;-0.59;78.48
36138;BME280;22194;50.046;21.954;2022-12-11T02:35:33;97455.30;;;-0.60;78.33
36138;BME280;22194;50.046;21.954;2022-12-11T02:38:22;97457.63;;;-0.61;78.53
36138;BME280;22194;50.046;21.954;2022-12-11T02:40:57;97452.18;;;-0.63;78.50
36138;BME280;22194;50.046;21.954;2022-12-11T02:43:31;97448.05;;;-0.64;78.37
36138;BME280;22194;50.046;21.954;2022-12-11T02:46:04;97452.53;;;-0.63;78.34
36138;BME280;22194;50.046;21.954;2022-12-11T02:48:35;97459.40;;;-0.61;78.44
36138;BME280;22194;50.046;21.954;2022-12-11T02:51:06;97459.00;;;-0.61;78.38
36138;BME280;22194;50.046;21.954;2022-12-11T02:53:39;97456.67;;;-0.60;78.42
36138;BME280;22194;50.046;21.954;2022-12-11T02:56:20;97459.24;;;-0.58;78.43
36138;BME280;22194;50.046;21.954;2022-12-11T02:58:59;97460.48;;;-0.59;78.35
36138;BME280;22194;50.046;21.954;2022-12-11T03:01:27;97454.19;;;-0.58;78.60
36138;BME280;22194;50.046;21.954;2022-12-11T03:03:58;97452.73;;;-0.57;78.42
36138;BME280;22194;50.046;21.954;2022-12-11T03:06:37;97452.27;;;-0.58;78.42
36138;BME280;22194;50.046;21.954;2022-12-11T03:09:12;97451.18;;;-0.57;78.37
36138;BME280;22194;50.046;21.954;2022-12-11T03:11:40;97449.42;;;-0.57;78.47
36138;BME280;22194;50.046;21.954;2022-12-11T03:14:08;97447.96;;;-0.56;78.53
36138;BME280;22194;50.046;21.954;2022-12-11T03:19:32;97438.68;;;-0.58;78.51
36138;BME280;22194;50.046;21.954;2022-12-11T03:22:11;97433.02;;;-0.60;78.48
36138;BME280;22194;50.046;21.954;2022-12-11T03:25:03;97422.95;;;-0.61;78.43
36138;BME280;22194;50.046;21.954;2022-12-11T03:27:43;97413.12;;;-0.62;78.28
36138;BME280;22194;50.046;21.954;2022-12-11T03:30:18;97402.00;;;-0.62;78.39
36138;BME280;22194;50.046;21.954;2022-12-11T03:33:03;97391.11;;;-0.64;78.36
36138;BME280;22194;50.046;21.954;2022-12-11T03:35:40;97378.15;;;-0.66;78.38
36138;BME280;22194;50.046;21.954;2022-12-11T03:38:15;97371.63;;;-0.67;78.36
36138;BME280;22194;50.046;21.954;2022-12-11T03:40:51;97369.20;;;-0.67;78.45
36138;BME280;22194;50.046;21.954;2022-12-11T03:43:23;97361.22;;;-0.68;78.48
36138;BME280;22194;50.046;21.954;2022-12-11T03:45:55;97356.20;;;-0.68;78.48
36138;BME280;22194;50.046;21.954;2022-12-11T03:48:29;97352.50;;;-0.68;78.49
36138;BME280;22194;50.046;21.954;2022-12-11T03:51:05;97346.39;;;-0.67;78.43
36138;BME280;22194;50.046;21.954;2022-12-11T03:53:36;97345.02;;;-0.68;78.38
36138;BME280;22194;50.046;21.954;2022-12-11T03:56:09;97343.39;;;-0.70;78.40
36138;BME280;22194;50.046;21.954;2022-12-11T03:58:38;97342.36;;;-0.70;78.52
36138;BME280;22194;50.046;21.954;2022-12-11T04:01:10;97337.11;;;-0.69;78.51
36138;BME280;22194;50.046;21.954;2022-12-11T04:03:39;97329.88;;;-0.71;78.44
36138;BME280;22194;50.046;21.954;2022-12-11T04:06:07;97328.54;;;-0.72;78.43
36138;BME280;22194;50.046;21.954;2022-12-11T04:08:35;97323.19;;;-0.73;78.39
36138;BME280;22194;50.046;21.954;2022-12-11T04:11:03;97321.32;;;-0.74;78.37
36138;BME280;22194;50.046;21.954;2022-12-11T04:13:50;97317.83;;;-0.74;78.51
36138;BME280;22194;50.046;21.954;2022-12-11T04:16:39;97319.34;;;-0.72;78.58
36138;BME280;22194;50.046;21.954;2022-12-11T04:19:10;97316.38;;;-0.72;78.52
36138;BME280;22194;50.046;21.954;2022-12-11T04:21:57;97312.21;;;-0.73;78.42
36138;BME280;22194;50.046;21.954;2022-12-11T04:24:48;97313.35;;;-0.74;78.38
36138;BME280;22194;50.046;21.954;2022-12-11T04:27:19;97316.02;;;-0.76;78.41
36138;BME280;22194;50.046;21.954;2022-12-11T04:30:11;97309.65;;;-0.77;78.53
36138;BME280;22194;50.046;21.954;2022-12-11T04:32:40;97309.65;;;-0.77;78.50
36138;BME280;22194;50.046;21.954;2022-12-11T04:35:12;97304.30;;;-0.78;78.48
36138;BME280;22194;50.046;21.954;2022-12-11T04:37:41;97305.59;;;-0.79;78.57
36138;BME280;22194;50.046;21.954;2022-12-11T04:40:16;97309.42;;;-0.79;78.58
36138;BME280;22194;50.046;21.954;2022-12-11T04:42:46;97309.74;;;-0.79;78.42
36138;BME280;22194;50.046;21.954;2022-12-11T04:45:14;97311.27;;;-0.78;78.43
36138;BME280;22194;50.046;21.954;2022-12-11T04:47:42;97306.20;;;-0.77;78.51
36138;BME280;22194;50.046;21.954;2022-12-11T04:50:13;97306.64;;;-0.76;78.54
36138;BME280;22194;50.046;21.954;2022-12-11T04:52:43;97303.98;;;-0.75;78.38
36138;BME280;22194;50.046;21.954;2022-12-11T04:55:11;97300.11;;;-0.78;78.52
36138;BME280;22194;50.046;21.954;2022-12-11T04:57:41;97296.42;;;-0.77;78.53
36138;BME280;22194;50.046;21.954;2022-12-11T05:00:11;97294.33;;;-0.77;78.52
36138;BME280;22194;50.046;21.954;2022-12-11T05:02:43;97294.90;;;-0.78;78.48
36138;BME280;22194;50.046;21.954;2022-12-11T05:05:13;97294.15;;;-0.80;78.44
36138;BME280;22194;50.046;21.954;2022-12-11T05:07:41;97287.21;;;-0.81;78.50
36138;BME280;22194;50.046;21.954;2022-12-11T05:10:11;97281.48;;;-0.81;78.51
36138;BME280;22194;50.046;21.954;2022-12-11T05:12:39;97279.14;;;-0.82;78.49
36138;BME280;22194;50.046;21.954;2022-12-11T05:15:09;97278.59;;;-0.85;78.43
36138;BME280;22194;50.046;21.954;2022-12-11T05:17:40;97279.65;;;-0.85;78.43
36138;BME280;22194;50.046;21.954;2022-12-11T05:20:10;97270.48;;;-0.86;78.50
36138;BME280;22194;50.046;21.954;2022-12-11T05:22:38;97276.80;;;-0.87;78.39
36138;BME280;22194;50.046;21.954;2022-12-11T05:25:08;97272.66;;;-0.88;78.53
36138;BME280;22194;50.046;21.954;2022-12-11T05:27:38;97272.33;;;-0.88;78.49
36138;BME280;22194;50.046;21.954;2022-12-11T05:30:09;97268.95;;;-0.90;78.39
36138;BME280;22194;50.046;21.954;2022-12-11T05:32:37;97271.48;;;-0.92;78.44
36138;BME280;22194;50.046;21.954;2022-12-11T05:35:07;97271.64;;;-0.92;78.48
36138;BME280;22194;50.046;21.954;2022-12-11T05:37:36;97272.45;;;-0.91;78.48
36138;BME280;22194;50.046;21.954;2022-12-11T05:40:07;97274.20;;;-0.91;78.42
36138;BME280;22194;50.046;21.954;2022-12-11T05:42:35;97273.77;;;-0.92;78.50
36138;BME280;22194;50.046;21.954;2022-12-11T05:45:05;97271.00;;;-0.93;78.46
36138;BME280;22194;50.046;21.954;2022-12-11T05:47:33;97268.61;;;-0.93;78.59
36138;BME280;22194;50.046;21.954;2022-12-11T05:50:01;97266.55;;;-0.94;78.52
36138;BME280;22194;50.046;21.954;2022-12-11T05:52:32;97263.25;;;-0.94;78.57
36138;BME280;22194;50.046;21.954;2022-12-11T05:55:00;97259.77;;;-0.94;78.54
36138;BME280;22194;50.046;21.954;2022-12-11T05:57:28;97257.39;;;-0.95;78.56
36138;BME280;22194;50.046;21.954;2022-12-11T05:59:56;97252.81;;;-0.94;78.54
36138;BME280;22194;50.046;21.954;2022-12-11T06:02:24;97248.79;;;-0.94;78.62
36138;BME280;22194;50.046;21.954;2022-12-11T06:04:54;97241.87;;;-0.94;78.62
36138;BME280;22194;50.046;21.954;2022-12-11T06:07:22;97245.35;;;-0.95;78.43
36138;BME280;22194;50.046;21.954;2022-12-11T06:09:50;97243.46;;;-0.95;78.57
36138;BME280;22194;50.046;21.954;2022-12-11T06:12:18;97241.45;;;-0.93;78.60
36138;BME280;22194;50.046;21.954;2022-12-11T06:14:47;97246.30;;;-0.93;78.56
36138;BME280;22194;50.046;21.954;2022-12-11T06:17:15;97239.89;;;-0.94;78.61
36138;BME280;22194;50.046;21.954;2022-12-11T06:19:43;97237.05;;;-0.96;78.49
36138;BME280;22194;50.046;21.954;2022-12-11T06:22:11;97239.02;;;-0.96;78.55
36138;BME280;22194;50.046;21.954;2022-12-11T06:24:39;97239.33;;;-0.99;78.47
36138;BME280;22194;50.046;21.954;2022-12-11T06:27:07;97236.80;;;-1.01;78.64
36138;BME280;22194;50.046;21.954;2022-12-11T06:29:37;97240.96;;;-1.00;78.58
36138;BME280;22194;50.046;21.954;2022-12-11T06:32:07;97240.27;;;-1.01;78.56
36138;BME280;22194;50.046;21.954;2022-12-11T06:34:35;97237.48;;;-1.00;78.54
36138;BME280;22194;50.046;21.954;2022-12-11T06:37:04;97237.36;;;-0.98;78.58
36138;BME280;22194;50.046;21.954;2022-12-11T06:39:32;97239.75;;;-0.97;78.57
36138;BME280;22194;50.046;21.954;2022-12-11T06:42:00;97236.91;;;-0.96;78.47
36138;BME280;22194;50.046;21.954;2022-12-11T06:44:28;97233.66;;;-0.97;78.50
36138;BME280;22194;50.046;21.954;2022-12-11T06:46:56;97230.38;;;-0.98;78.54
36138;BME280;22194;50.046;21.954;2022-12-11T06:49:24;97236.66;;;-0.98;78.50
36138;BME280;22194;50.046;21.954;2022-12-11T06:51:51;97235.14;;;-0.99;78.58
36138;BME280;22194;50.046;21.954;2022-12-11T06:54:20;97232.83;;;-0.98;78.60
36138;BME280;22194;50.046;21.954;2022-12-11T06:56:54;97230.39;;;-1.01;78.47
36138;BME280;22194;50.046;21.954;2022-12-11T06:59:22;97230.90;;;-1.04;78.54
36138;BME280;22194;50.046;21.954;2022-12-11T07:01:50;97229.82;;;-1.03;78.55
36138;BME280;22194;50.046;21.954;2022-12-11T07:04:20;97228.16;;;-1.01;78.64
36138;BME280;22194;50.046;21.954;2022-12-11T07:06:53;97228.30;;;-1.01;78.73
36138;BME280;22194;50.046;21.954;2022-12-11T07:09:25;97222.22;;;-1.04;78.57
36138;BME280;22194;50.046;21.954;2022-12-11T07:11:53;97219.50;;;-1.06;78.54
36138;BME280;22194;50.046;21.954;2022-12-11T07:14:21;97216.10;;;-1.07;78.41
36138;BME280;22194;50.046;21.954;2022-12-11T07:16:48;97209.15;;;-1.10;78.41
36138;BME280;22194;50.046;21.954;2022-12-11T07:19:17;97206.54;;;-1.13;78.51
36138;BME280;22194;50.046;21.954;2022-12-11T07:21:49;97204.77;;;-1.13;78.57
36138;BME280;22194;50.046;21.954;2022-12-11T07:24:19;97204.97;;;-1.13;78.54
36138;BME280;22194;50.046;21.954;2022-12-11T07:26:47;97203.21;;;-1.13;78.62
36138;BME280;22194;50.046;21.954;2022-12-11T07:29:15;97202.97;;;-1.12;78.65
36138;BME280;22194;50.046;21.954;2022-12-11T07:31:43;97202.09;;;-1.11;78.52
36138;BME280;22194;50.046;21.954;2022-12-11T07:34:13;97199.46;;;-1.08;78.66
36138;BME280;22194;50.046;21.954;2022-12-11T07:36:43;97196.05;;;-1.06;78.56
36138;BME280;22194;50.046;21.954;2022-12-11T07:39:12;97194.84;;;-1.06;78.60
36138;BME280;22194;50.046;21.954;2022-12-11T07:41:40;97196.09;;;-1.07;78.41
36138;BME280;22194;50.046;21.954;2022-12-11T07:44:08;97195.41;;;-1.08;78.66
36138;BME280;22194;50.046;21.954;2022-12-11T07:46:38;97197.48;;;-1.07;78.48
36138;BME280;22194;50.046;21.954;2022-12-11T07:49:06;97195.04;;;-1.07;78.47
36138;BME280;22194;50.046;21.954;2022-12-11T07:51:37;97194.31;;;-1.06;78.52
36138;BME280;22194;50.046;21.954;2022-12-11T07:54:10;97197.44;;;-1.06;78.66
36138;BME280;22194;50.046;21.954;2022-12-11T07:56:46;97200.13;;;-1.04;78.51
36138;BME280;22194;50.046;21.954;2022-12-11T07:59:22;97199.06;;;-1.04;78.54
36138;BME280;22194;50.046;21.954;2022-12-11T08:01:50;97191.73;;;-1.03;78.56
36138;BME280;22194;50.046;21.954;2022-12-11T08:04:18;97190.23;;;-1.01;78.43
36138;BME280;22194;50.046;21.954;2022-12-11T08:06:46;97196.60;;;-1.03;78.39
36138;BME280;22194;50.046;21.954;2022-12-11T08:09:14;97203.46;;;-1.05;78.54
36138;BME280;22194;50.046;21.954;2022-12-11T08:11:49;97204.04;;;-1.02;78.54
36138;BME280;22194;50.046;21.954;2022-12-11T08:14:18;97205.18;;;-1.01;78.55
36138;BME280;22194;50.046;21.954;2022-12-11T08:16:48;97206.05;;;-0.99;78.60
36138;BME280;22194;50.046;21.954;2022-12-11T08:19:17;97204.98;;;-0.98;78.49
36138;BME280;22194;50.046;21.954;2022-12-11T08:21:45;97197.77;;;-0.97;78.58
36138;BME280;22194;50.046;21.954;2022-12-11T08:24:18;97199.18;;;-0.97;78.48
36138;BME280;22194;50.046;21.954;2022-12-11T08:26:50;97193.30;;;-0.97;78.48
36138;BME280;22194;50.046;21.954;2022-12-11T08:29:18;97188.52;;;-0.99;78.56
36138;BME280;22194;50.046;21.954;2022-12-11T08:31:48;97192.64;;;-1.01;78.53
36138;BME280;22194;50.046;21.954;2022-12-11T08:34:19;97189.90;;;-1.01;78.49
36138;BME280;22194;50.046;21.954;2022-12-11T08:36:47;97184.81;;;-1.01;78.47
36138;BME280;22194;50.046;21.954;2022-12-11T08:39:14;97182.34;;;-1.03;78.47
36138;BME280;22194;50.046;21.954;2022-12-11T08:41:42;97181.35;;;-1.04;78.40
36138;BME280;22194;50.046;21.954;2022-12-11T08:44:12;97177.04;;;-1.05;78.57
36138;BME280;22194;50.046;21.954;2022-12-11T08:46:44;97177.39;;;-1.08;78.55
36138;BME280;22194;50.046;21.954;2022-12-11T08:49:16;97181.94;;;-1.12;78.51
36138;BME280;22194;50.046;21.954;2022-12-11T08:51:46;97183.39;;;-1.17;78.50
36138;BME280;22194;50.046;21.954;2022-12-11T08:54:15;97180.55;;;-1.22;78.55
36138;BME280;22194;50.046;21.954;2022-12-11T08:56:43;97180.95;;;-1.23;78.55
36138;BME280;22194;50.046;21.954;2022-12-11T08:59:11;97180.87;;;-1.24;78.45
36138;BME280;22194;50.046;21.954;2022-12-11T09:01:41;97182.51;;;-1.26;78.75
36138;BME280;22194;50.046;21.954;2022-12-11T09:04:11;97182.17;;;-1.26;78.41
36138;BME280;22194;50.046;21.954;2022-12-11T09:06:40;97175.84;;;-1.28;78.60
36138;BME280;22194;50.046;21.954;2022-12-11T09:09:08;97176.97;;;-1.29;78.54
36138;BME280;22194;50.046;21.954;2022-12-11T09:11:36;97174.73;;;-1.30;78.51
36138;BME280;22194;50.046;21.954;2022-12-11T09:14:09;97168.35;;;-1.31;78.36
36138;BME280;22194;50.046;21.954;2022-12-11T09:16:41;97169.67;;;-1.32;78.40
36138;BME280;22194;50.046;21.954;2022-12-11T09:19:12;97164.75;;;-1.35;78.44
36138;BME280;22194;50.046;21.954;2022-12-11T09:21:43;97161.56;;;-1.37;78.61
36138;BME280;22194;50.046;21.954;2022-12-11T09:24:14;97167.05;;;-1.39;78.57
36138;BME280;22194;50.046;21.954;2022-12-11T09:26:43;97163.75;;;-1.42;78.42
36138;BME280;22194;50.046;21.954;2022-12-11T09:29:14;97167.66;;;-1.47;78.54
36138;BME280;22194;50.046;21.954;2022-12-11T09:31:42;97167.26;;;-1.46;78.68
36138;BME280;22194;50.046;21.954;2022-12-11T09:34:14;97162.99;;;-1.44;78.56
36138;BME280;22194;50.046;21.954;2022-12-11T09:36:42;97164.50;;;-1.46;78.57
36138;BME280;22194;50.046;21.954;2022-12-11T09:39:15;97169.77;;;-1.47;78.62
36138;BME280;22194;50.046;21.954;2022-12-11T09:44:56;97168.31;;;-1.49;78.61
36138;BME280;22194;50.046;21.954;2022-12-11T09:47:37;97172.05;;;-1.47;78.73
36138;BME280;22194;50.046;21.954;2022-12-11T09:50:16;97166.23;;;-1.46;78.63
36138;BME280;22194;50.046;21.954;2022-12-11T09:55:54;97163.34;;;-1.51;78.62
36138;BME280;22194;50.046;21.954;2022-12-11T10:07:18;97160.15;;;-1.59;78.50
36138;BME280;22194;50.046;21.954;2022-12-11T10:13:10;97156.64;;;-1.65;78.45
36138;BME280;22194;50.046;21.954;2022-12-11T10:18:54;97169.66;;;-1.68;78.54
36138;BME280;22194;50.046;21.954;2022-12-11T10:21:25;97169.63;;;-1.71;78.52
36138;BME280;22194;50.046;21.954;2022-12-11T10:24:01;97176.65;;;-1.72;78.67
36138;BME280;22194;50.046;21.954;2022-12-11T10:26:31;97184.07;;;-1.71;78.63
36138;BME280;22194;50.046;21.954;2022-12-11T10:29:05;97181.58;;;-1.73;78.57
36138;BME280;22194;50.046;21.954;2022-12-11T10:34:32;97189.35;;;-1.79;78.53
36138;BME280;22194;50.046;21.954;2022-12-11T10:37:05;97194.09;;;-1.76;78.67
36138;BME280;22194;50.046;21.954;2022-12-11T10:39:34;97193.84;;;-1.82;78.52
36138;BME280;22194;50.046;21.954;2022-12-11T10:42:17;97194.13;;;-1.84;78.55
36138;BME280;22194;50.046;21.954;2022-12-11T10:45:03;97193.96;;;-1.84;78.53
36138;BME280;22194;50.046;21.954;2022-12-11T10:47:32;97192.72;;;-1.87;78.60
36138;BME280;22194;50.046;21.954;2022-12-11T10:50:06;97190.79;;;-1.87;78.45
36138;BME280;22194;50.046;21.954;2022-12-11T10:52:41;97186.27;;;-1.87;78.62
36138;BME280;22194;50.046;21.954;2022-12-11T10:55:27;97188.73;;;-1.87;78.74
36138;BME280;22194;50.046;21.954;2022-12-11T10:58:02;97186.05;;;-1.89;78.80
36138;BME280;22194;50.046;21.954;2022-12-11T11:00:37;97183.67;;;-1.87;78.61
36138;BME280;22194;50.046;21.954;2022-12-11T11:03:21;97177.09;;;-1.87;78.56
36138;BME280;22194;50.046;21.954;2022-12-11T11:06:02;97168.77;;;-1.84;78.64
36138;BME280;22194;50.046;21.954;2022-12-11T11:08:44;97170.13;;;-1.84;78.65
36138;BME280;22194;50.046;21.954;2022-12-11T11:11:23;97183.05;;;-1.82;78.56
36138;BME280;22194;50.046;21.954;2022-12-11T11:16:46;97191.06;;;-1.82;78.56
36138;BME280;22194;50.046;21.954;2022-12-11T11:19:24;97191.87;;;-1.81;78.76
36138;BME280;22194;50.046;21.954;2022-12-11T11:22:03;97193.42;;;-1.77;78.78
36138;BME280;22194;50.046;21.954;2022-12-11T11:24:42;97199.06;;;-1.75;78.64
36138;BME280;22194;50.046;21.954;2022-12-11T11:30:20;97200.95;;;-1.75;78.65
36138;BME280;22194;50.046;21.954;2022-12-11T11:33:09;97188.27;;;-1.75;78.63
36138;BME280;22194;50.046;21.954;2022-12-11T11:36:00;97200.98;;;-1.79;78.60
36138;BME280;22194;50.046;21.954;2022-12-11T11:38:40;97207.69;;;-1.84;78.42
36138;BME280;22194;50.046;21.954;2022-12-11T11:41:38;97216.84;;;-1.90;78.47
36138;BME280;22194;50.046;21.954;2022-12-11T11:44:13;97220.98;;;-1.92;78.39
36138;BME280;22194;50.046;21.954;2022-12-11T11:46:55;97217.48;;;-1.96;78.59
36138;BME280;22194;50.046;21.954;2022-12-11T11:52:14;97199.70;;;-1.98;78.72
36138;BME280;22194;50.046;21.954;2022-12-11T11:57:38;97196.16;;;-2.00;78.65
36138;BME280;22194;50.046;21.954;2022-12-11T12:00:21;97197.20;;;-1.97;78.68
36138;BME280;22194;50.046;21.954;2022-12-11T12:03:12;97199.73;;;-1.91;78.83
36138;BME280;22194;50.046;21.954;2022-12-11T12:06:04;97198.23;;;-1.86;78.99
36138;BME280;22194;50.046;21.954;2022-12-11T12:17:25;97205.10;;;-1.91;79.02
36138;BME280;22194;50.046;21.954;2022-12-11T12:20:18;97197.61;;;-1.91;78.88
36138;BME280;22194;50.046;21.954;2022-12-11T12:25:28;97191.95;;;-1.89;79.04
36138;BME280;22194;50.046;21.954;2022-12-11T12:33:30;97203.33;;;-1.98;78.61
36138;BME280;22194;50.046;21.954;2022-12-11T12:44:23;97227.84;;;-2.08;78.57
36138;BME280;22194;50.046;21.954;2022-12-11T12:47:02;97233.67;;;-2.06;78.65
36138;BME280;22194;50.046;21.954;2022-12-11T12:49:41;97234.75;;;-2.11;78.72
36138;BME280;22194;50.046;21.954;2022-12-11T12:52:30;97240.84;;;-2.18;78.66
36138;BME280;22194;50.046;21.954;2022-12-11T12:55:26;97237.72;;;-2.25;78.65
36138;BME280;22194;50.046;21.954;2022-12-11T12:58:01;97237.17;;;-2.28;78.73
36138;BME280;22194;50.046;21.954;2022-12-11T13:00:38;97238.35;;;-2.31;78.79
36138;BME280;22194;50.046;21.954;2022-12-11T13:03:17;97250.92;;;-2.32;79.08
36138;BME280;22194;50.046;21.954;2022-12-11T13:08:51;97248.36;;;-2.36;79.02
36138;BME280;22194;50.046;21.954;2022-12-11T13:11:29;97241.52;;;-2.38;79.16
36138;BME280;22194;50.046;21.954;2022-12-11T13:17:23;97239.02;;;-2.41;79.01
36138;BME280;22194;50.046;21.954;2022-12-11T13:19:35;97238.45;;;-2.40;78.91
36138;BME280;22194;50.046;21.954;2022-12-11T13:25:22;97240.74;;;-2.44;78.83
36138;BME280;22194;50.046;21.954;2022-12-11T13:28:06;97242.36;;;-2.48;78.62
36138;BME280;22194;50.046;21.954;2022-12-11T13:30:38;97240.73;;;-2.51;78.68
36138;BME280;22194;50.046;21.954;2022-12-11T13:33:14;97232.05;;;-2.51;78.80
36138;BME280;22194;50.046;21.954;2022-12-11T13:35:44;97222.06;;;-2.49;78.96
36138;BME280;22194;50.046;21.954;2022-12-11T13:38:19;97224.12;;;-2.48;79.02
36138;BME280;22194;50.046;21.954;2022-12-11T13:40:53;97225.56;;;-2.49;79.08
36138;BME280;22194;50.046;21.954;2022-12-11T13:43:30;97224.06;;;-2.51;78.96
36138;BME280;22194;50.046;21.954;2022-12-11T13:46:04;97232.08;;;-2.51;79.23
36138;BME280;22194;50.046;21.954;2022-12-11T13:48:46;97239.39;;;-2.52;78.96
36138;BME280;22194;50.046;21.954;2022-12-11T13:51:25;97250.70;;;-2.52;78.86
36138;BME280;22194;50.046;21.954;2022-12-11T13:54:15;97264.65;;;-2.54;78.83
36138;BME280;22194;50.046;21.954;2022-12-11T13:59:29;97278.33;;;-2.60;78.92
36138;BME280;22194;50.046;21.954;2022-12-11T14:02:33;97278.93;;;-2.66;78.77
36138;BME280;22194;50.046;21.954;2022-12-11T14:05:09;97280.94;;;-2.67;78.83
36138;BME280;22194;50.046;21.954;2022-12-11T14:07:48;97283.42;;;-2.69;78.85
36138;BME280;22194;50.046;21.954;2022-12-11T14:10:23;97291.02;;;-2.68;78.93
36138;BME280;22194;50.046;21.954;2022-12-11T14:13:14;97287.58;;;-2.69;78.85
36138;BME280;22194;50.046;21.954;2022-12-11T14:15:47;97297.77;;;-2.68;78.99
36138;BME280;22194;50.046;21.954;2022-12-11T14:18:22;97313.20;;;-2.67;78.95
36138;BME280;22194;50.046;21.954;2022-12-11T14:21:04;97324.66;;;-2.67;79.00
36138;BME280;22194;50.046;21.954;2022-12-11T14:23:37;97341.77;;;-2.70;78.64
36138;BME280;22194;50.046;21.954;2022-12-11T14:26:27;97355.46;;;-2.74;79.10
36138;BME280;22194;50.046;21.954;2022-12-11T14:28:57;97353.07;;;-2.74;78.87
36138;BME280;22194;50.046;21.954;2022-12-11T14:31:35;97348.19;;;-2.74;78.83
36138;BME280;22194;50.046;21.954;2022-12-11T14:34:18;97347.47;;;-2.73;78.77
36138;BME280;22194;50.046;21.954;2022-12-11T14:36:52;97349.38;;;-2.73;78.82
36138;BME280;22194;50.046;21.954;2022-12-11T14:39:23;97340.13;;;-2.72;78.74
36138;BME280;22194;50.046;21.954;2022-12-11T14:42:06;97330.94;;;-2.72;78.84
36138;BME280;22194;50.046;21.954;2022-12-11T14:44:47;97322.81;;;-2.73;78.81
36138;BME280;22194;50.046;21.954;2022-12-11T14:47:41;97319.48;;;-2.72;78.94
36138;BME280;22194;50.046;21.954;2022-12-11T14:50:20;97326.39;;;-2.71;78.80